createdAt,value
2023-05-14T00:00:38.254Z,10.14
2023-05-14T00:02:39.798Z,10.11
2023-05-14T00:04:41.596Z,10.10
2023-05-14T00:06:43.229Z,10.06
2023-05-14T00:08:44.836Z,10.03
2023-05-14T00:10:46.374Z,10.00
2023-05-14T00:12:48.066Z,9.97
2023-05-14T00:14:49.599Z,9.92
2023-05-14T00:16:51.100Z,9.88
2023-05-14T00:18:52.689Z,9.84
2023-05-14T00:20:55.014Z,9.81
2023-05-14T00:22:56.658Z,9.78
2023-05-14T00:24:58.171Z,9.76
2023-05-14T00:26:59.738Z,9.76
2023-05-14T00:29:01.385Z,9.78
2023-05-14T00:31:02.962Z,9.70
2023-05-14T00:33:04.535Z,9.75
2023-05-14T00:35:06.559Z,9.74
2023-05-14T00:37:08.169Z,9.73
2023-05-14T00:39:10.099Z,9.70
2023-05-14T00:41:12.168Z,9.67
2023-05-14T00:43:13.637Z,9.65
2023-05-14T00:45:15.422Z,9.64
2023-05-14T00:47:16.962Z,9.63
2023-05-14T00:49:18.733Z,9.65
2023-05-14T00:51:20.536Z,9.62
2023-05-14T00:53:22.383Z,9.61
2023-05-14T00:55:23.975Z,9.60
2023-05-14T00:57:25.548Z,9.58
2023-05-14T00:59:27.091Z,9.55
2023-05-14T01:01:34.136Z,9.56
2023-05-14T01:03:36.194Z,9.53
2023-05-14T01:06:01.114Z,9.51
2023-05-14T01:10:52.913Z,9.49
2023-05-14T01:13:04.415Z,9.47
2023-05-14T01:15:09.251Z,9.44
2023-05-14T01:17:13.311Z,9.40
2023-05-14T01:19:37.737Z,9.43
2023-05-14T01:21:42.794Z,9.42
2023-05-14T01:23:44.304Z,9.43
2023-05-14T01:25:45.952Z,9.40
2023-05-14T01:27:53.533Z,9.35
2023-05-14T01:30:31.096Z,9.32
2023-05-14T01:32:33.711Z,9.29
2023-05-14T01:34:37.643Z,9.29
2023-05-14T01:36:41.129Z,9.27
2023-05-14T01:38:45.770Z,9.23
2023-05-14T01:40:48.770Z,9.21
2023-05-14T01:42:51.987Z,9.17
2023-05-14T01:44:54.227Z,9.19
2023-05-14T01:46:55.854Z,9.11
2023-05-14T01:48:57.380Z,9.11
2023-05-14T01:50:58.947Z,9.11
2023-05-14T01:53:00.529Z,9.10
2023-05-14T01:55:02.070Z,9.08
2023-05-14T01:57:03.725Z,9.06
2023-05-14T01:59:05.334Z,9.03
2023-05-14T02:01:06.927Z,9.03
2023-05-14T02:03:08.469Z,9.05
2023-05-14T02:05:11.641Z,9.03
2023-05-14T02:07:13.248Z,9.03
2023-05-14T02:09:14.825Z,9.02
2023-05-14T02:11:16.385Z,9.02
2023-05-14T02:13:17.924Z,8.99
2023-05-14T02:20:11.705Z,8.94
2023-05-14T02:22:13.475Z,8.91
2023-05-14T02:24:15.121Z,8.90
2023-05-14T02:26:16.699Z,8.89
2023-05-14T02:28:18.232Z,8.87
2023-05-14T02:30:21.721Z,8.85
2023-05-14T02:32:23.515Z,8.84
2023-05-14T02:34:25.477Z,8.81
2023-05-14T02:36:29.928Z,8.80
2023-05-14T02:38:31.484Z,8.79
2023-05-14T02:40:33.034Z,8.77
2023-05-14T02:42:35.346Z,8.75
2023-05-14T02:44:37.061Z,8.72
2023-05-14T02:46:38.594Z,8.70
2023-05-14T02:48:40.220Z,8.68
2023-05-14T02:50:41.740Z,8.68
2023-05-14T02:52:43.315Z,8.70
2023-05-14T02:54:44.837Z,8.65
2023-05-14T02:56:47.136Z,8.63
2023-05-14T02:58:48.623Z,8.63
2023-05-14T03:00:50.321Z,8.65
2023-05-14T03:02:52.503Z,8.65
2023-05-14T03:04:54.509Z,8.70
2023-05-14T03:06:56.096Z,8.71
2023-05-14T03:08:57.603Z,8.72
2023-05-14T03:10:59.152Z,8.74
2023-05-14T03:13:00.715Z,8.73
2023-05-14T03:15:02.249Z,8.76
2023-05-14T03:17:04.096Z,8.75
2023-05-14T03:19:05.795Z,8.75
2023-05-14T03:21:09.047Z,8.76
2023-05-14T03:23:10.657Z,8.74
2023-05-14T03:25:12.267Z,8.76
2023-05-14T03:27:13.807Z,8.75
2023-05-14T03:29:18.066Z,8.75
2023-05-14T03:31:19.830Z,8.75
2023-05-14T03:33:21.788Z,8.76
2023-05-14T03:35:23.386Z,8.76
2023-05-14T03:37:24.934Z,8.73
2023-05-14T03:39:26.459Z,8.71
2023-05-14T03:41:27.969Z,8.69
2023-05-14T03:43:29.534Z,8.69
2023-05-14T03:45:32.391Z,8.64
2023-05-14T03:47:33.947Z,8.64
2023-05-14T03:49:35.464Z,8.64
2023-05-14T03:51:37.012Z,8.64
2023-05-14T03:53:38.548Z,8.62
2023-05-14T03:55:40.220Z,8.63
2023-05-14T03:57:41.609Z,8.62
2023-05-14T03:59:43.334Z,8.62
2023-05-14T04:01:44.903Z,8.63
2023-05-14T04:03:46.590Z,8.61
2023-05-14T04:05:48.169Z,8.59
2023-05-14T04:07:49.809Z,8.58
2023-05-14T04:09:51.383Z,8.58
2023-05-14T04:11:52.917Z,8.57
2023-05-14T04:13:54.538Z,8.56
2023-05-14T04:15:56.101Z,8.56
2023-05-14T04:17:57.778Z,8.55
2023-05-14T04:19:59.398Z,8.55
2023-05-14T04:22:00.908Z,8.54
2023-05-14T04:24:02.447Z,8.56
2023-05-14T04:26:05.006Z,8.58
2023-05-14T04:28:06.576Z,8.58
2023-05-14T04:30:08.839Z,8.59
2023-05-14T04:32:10.595Z,8.60
2023-05-14T04:34:12.243Z,8.63
2023-05-14T04:36:14.028Z,8.64
2023-05-14T04:38:15.620Z,8.65
2023-05-14T04:40:17.339Z,8.69
2023-05-14T04:42:18.906Z,8.68
2023-05-14T04:44:20.450Z,8.71
2023-05-14T04:46:22.414Z,8.74
2023-05-14T04:48:23.993Z,8.76
2023-05-14T04:50:25.822Z,8.81
2023-05-14T04:52:27.608Z,8.85
2023-05-14T04:54:29.366Z,8.89
2023-05-14T04:56:30.943Z,8.93
2023-05-14T04:58:34.628Z,8.99
2023-05-14T05:00:37.040Z,9.04
2023-05-14T05:02:38.666Z,9.10
2023-05-14T05:04:40.375Z,9.15
2023-05-14T05:06:41.925Z,9.20
2023-05-14T05:08:43.504Z,9.27
2023-05-14T05:10:45.003Z,9.31
2023-05-14T05:12:46.526Z,9.38
2023-05-14T05:14:48.046Z,9.45
2023-05-14T05:16:49.603Z,9.50
2023-05-14T05:18:51.323Z,9.53
2023-05-14T05:20:52.932Z,9.60
2023-05-14T05:22:54.436Z,9.65
2023-05-14T05:24:56.025Z,9.70
2023-05-14T05:26:57.516Z,9.74
2023-05-14T05:28:59.431Z,9.77
2023-05-14T05:31:01.044Z,9.82
2023-05-14T05:33:02.588Z,9.88
2023-05-14T05:35:04.535Z,9.92
2023-05-14T05:37:06.236Z,9.97
2023-05-14T05:39:07.859Z,10.00
2023-05-14T05:41:09.347Z,10.04
2023-05-14T05:43:10.945Z,10.09
2023-05-14T05:45:12.570Z,10.13
2023-05-14T05:47:14.093Z,10.16
2023-05-14T05:49:15.574Z,10.14
2023-05-14T05:51:17.120Z,10.14
2023-05-14T05:53:18.733Z,10.14
2023-05-14T05:55:20.352Z,10.14
2023-05-14T05:57:25.677Z,10.13
2023-05-14T05:59:27.903Z,10.15
2023-05-14T06:01:29.514Z,10.15
2023-05-14T06:03:31.025Z,10.17
2023-05-14T06:05:32.705Z,10.19
2023-05-14T06:07:34.476Z,10.24
2023-05-14T06:09:35.986Z,10.32
2023-05-14T06:11:37.479Z,10.41
2023-05-14T06:13:39.009Z,10.48
2023-05-14T06:15:41.958Z,10.57
2023-05-14T06:17:43.564Z,10.66
2023-05-14T06:19:45.411Z,10.75
2023-05-14T06:21:46.938Z,10.84
2023-05-14T06:23:48.495Z,10.93
2023-05-14T06:25:50.969Z,11.00
2023-05-14T06:27:52.533Z,11.08
2023-05-14T06:29:54.054Z,11.17
2023-05-14T06:32:03.814Z,11.25
2023-05-14T06:34:06.634Z,11.34
2023-05-14T06:36:08.541Z,11.43
2023-05-14T06:38:10.036Z,11.51
2023-05-14T06:40:12.927Z,11.60
2023-05-14T06:42:14.470Z,11.68
2023-05-14T06:44:19.457Z,11.79
2023-05-14T06:46:21.306Z,11.87
2023-05-14T06:48:23.060Z,11.93
2023-05-14T06:50:25.100Z,11.97
2023-05-14T06:52:26.977Z,12.03
2023-05-14T06:54:28.498Z,12.12
2023-05-14T06:56:32.714Z,12.20
2023-05-14T06:58:34.217Z,12.27
2023-05-14T07:00:35.761Z,12.32
2023-05-14T07:02:37.336Z,12.42
2023-05-14T07:04:38.956Z,12.52
2023-05-14T07:06:40.780Z,12.62
2023-05-14T07:08:45.906Z,12.70
2023-05-14T07:10:47.429Z,12.77
2023-05-14T07:12:49.460Z,12.78
2023-05-14T07:14:51.282Z,12.87
2023-05-14T07:16:52.863Z,12.93
2023-05-14T07:18:54.443Z,13.04
2023-05-14T07:20:55.976Z,13.08
2023-05-14T07:22:57.518Z,13.18
2023-05-14T07:24:59.035Z,13.29
2023-05-14T07:27:01.876Z,13.39
2023-05-14T07:29:03.476Z,13.45
2023-05-14T07:31:08.952Z,13.56
2023-05-14T07:33:10.826Z,13.69
2023-05-14T07:35:12.477Z,13.73
2023-05-14T07:37:14.033Z,13.82
2023-05-14T07:39:15.712Z,13.99
2023-05-14T07:41:17.332Z,14.06
2023-05-14T07:43:18.835Z,14.13
2023-05-14T07:45:20.364Z,14.18
2023-05-14T07:47:21.910Z,14.29
2023-05-14T07:49:23.452Z,14.35
2023-05-14T07:51:28.187Z,14.41
2023-05-14T07:53:29.748Z,14.52
2023-05-14T07:55:31.455Z,14.66
2023-05-14T07:57:32.988Z,14.77
2023-05-14T07:59:34.718Z,14.81
2023-05-14T08:01:39.193Z,14.89
2023-05-14T08:03:41.142Z,15.04
2023-05-14T08:05:42.748Z,15.16
2023-05-14T08:07:44.602Z,15.22
2023-05-14T08:09:46.156Z,15.28
2023-05-14T08:11:47.655Z,15.38
2023-05-14T08:13:49.165Z,15.50
2023-05-14T08:15:51.297Z,15.54
2023-05-14T08:17:52.900Z,15.61
2023-05-14T08:19:54.497Z,15.65
2023-05-14T08:21:56.040Z,15.74
2023-05-14T08:23:57.770Z,15.84
2023-05-14T08:25:59.842Z,15.90
2023-05-14T08:28:01.846Z,15.96
2023-05-14T08:30:04.127Z,16.08
2023-05-14T08:32:19.318Z,16.18
2023-05-14T08:34:24.680Z,16.21
2023-05-14T08:36:26.880Z,16.33
2023-05-14T08:38:28.391Z,16.45
2023-05-14T08:40:30.271Z,16.49
2023-05-14T08:42:32.376Z,16.59
2023-05-14T08:44:44.659Z,16.75
2023-05-14T08:46:46.942Z,16.74
2023-05-14T08:48:58.364Z,16.72
2023-05-14T08:51:00.750Z,16.86
2023-05-14T08:53:02.301Z,16.93
2023-05-14T08:55:05.599Z,16.96
2023-05-14T08:57:10.354Z,17.11
2023-05-14T08:59:12.784Z,17.10
2023-05-14T09:01:14.341Z,17.15
2023-05-14T09:03:16.402Z,17.12
2023-05-14T09:05:19.258Z,17.26
2023-05-14T09:07:20.897Z,17.34
2023-05-14T09:09:23.143Z,17.33
2023-05-14T09:11:24.744Z,17.29
2023-05-14T09:13:28.230Z,17.41
2023-05-14T09:15:31.585Z,17.45
2023-05-14T09:17:33.833Z,17.53
2023-05-14T09:19:35.513Z,17.51
2023-05-14T09:21:37.333Z,17.67
2023-05-14T09:23:42.465Z,17.78
2023-05-14T09:25:44.038Z,17.88
2023-05-14T09:27:50.133Z,17.95
2023-05-14T09:29:51.930Z,17.89
2023-05-14T09:31:54.929Z,18.07
2023-05-14T09:33:56.590Z,18.22
2023-05-14T09:36:02.017Z,18.25
2023-05-14T09:38:03.612Z,18.30
2023-05-14T09:40:08.938Z,18.37
2023-05-14T09:42:10.659Z,18.33
2023-05-14T09:44:12.191Z,18.47
2023-05-14T09:46:13.693Z,18.44
2023-05-14T09:48:15.883Z,18.41
2023-05-14T09:50:17.423Z,18.54
2023-05-14T09:52:19.838Z,18.55
2023-05-14T09:54:21.404Z,18.70
2023-05-14T09:56:23.623Z,18.77
2023-05-14T09:58:25.250Z,18.86
2023-05-14T10:00:26.963Z,18.90
2023-05-14T10:02:37.484Z,18.90
2023-05-14T10:04:39.704Z,19.05
2023-05-14T10:06:44.035Z,19.28
2023-05-14T10:08:48.615Z,19.38
2023-05-14T10:10:51.808Z,19.43
2023-05-14T10:12:58.376Z,19.69
2023-05-14T10:15:06.856Z,19.53
2023-05-14T10:17:18.060Z,19.48
2023-05-14T10:19:23.707Z,19.55
2023-05-14T10:21:29.544Z,19.43
2023-05-14T10:23:31.233Z,19.55
2023-05-14T10:25:33.087Z,19.65
2023-05-14T10:27:34.685Z,19.83
2023-05-14T10:29:38.024Z,19.88
2023-05-14T10:31:56.562Z,20.04
2023-05-14T10:33:59.797Z,19.98
2023-05-14T10:36:04.180Z,19.70
2023-05-14T10:38:08.770Z,19.96
2023-05-14T10:40:10.571Z,19.77
2023-05-14T10:42:15.521Z,20.04
2023-05-14T10:44:17.436Z,20.17
2023-05-14T10:46:19.266Z,20.30
2023-05-14T10:48:21.434Z,20.13
2023-05-14T10:50:23.741Z,20.30
2023-05-14T10:52:26.407Z,20.40
2023-05-14T10:54:28.690Z,20.25
2023-05-14T10:56:30.345Z,20.30
2023-05-14T10:58:35.128Z,20.54
2023-05-14T11:00:37.613Z,20.59
2023-05-14T11:02:42.063Z,20.68
2023-05-14T11:04:52.371Z,20.58
2023-05-14T11:06:55.415Z,20.71
2023-05-14T11:08:58.554Z,20.83
2023-05-14T11:11:00.456Z,20.83
2023-05-14T11:13:02.602Z,20.83
2023-05-14T11:15:07.257Z,20.97
2023-05-14T11:17:09.070Z,20.91
2023-05-14T11:19:11.244Z,20.72
2023-05-14T11:21:13.122Z,20.27
2023-05-14T11:23:14.850Z,20.28
2023-05-14T11:25:17.799Z,20.58
2023-05-14T11:27:21.502Z,20.79
2023-05-14T11:29:23.033Z,20.94
2023-05-14T11:31:25.601Z,20.88
2023-05-14T11:33:27.814Z,20.98
2023-05-14T11:35:31.663Z,20.48
2023-05-14T11:37:33.190Z,20.69
2023-05-14T11:39:38.571Z,20.72
2023-05-14T11:41:45.091Z,21.09
2023-05-14T11:43:46.633Z,21.22
2023-05-14T11:45:52.677Z,20.87
2023-05-14T11:47:57.055Z,20.58
2023-05-14T11:50:00.512Z,20.70
2023-05-14T11:52:05.230Z,20.85
2023-05-14T11:54:06.710Z,20.52
2023-05-14T11:56:09.809Z,20.35
2023-05-14T11:58:12.690Z,20.76
2023-05-14T12:00:16.872Z,21.08
2023-05-14T12:02:22.890Z,21.40
2023-05-14T12:04:24.996Z,21.51
2023-05-14T12:06:32.270Z,21.67
2023-05-14T12:08:34.039Z,21.78
2023-05-14T12:10:42.540Z,21.94
2023-05-14T12:12:47.269Z,21.94
2023-05-14T12:14:49.982Z,22.08
2023-05-14T12:16:51.845Z,22.24
2023-05-14T12:18:53.523Z,22.28
2023-05-14T12:20:55.618Z,22.37
2023-05-14T12:22:57.184Z,22.67
2023-05-14T12:25:00.270Z,22.65
2023-05-14T12:27:04.074Z,22.66
2023-05-14T12:29:08.748Z,22.93
2023-05-14T12:31:10.419Z,22.80
2023-05-14T12:33:12.088Z,23.05
2023-05-14T12:35:13.646Z,22.63
2023-05-14T12:37:15.138Z,22.79
2023-05-14T12:39:16.832Z,22.97
2023-05-14T12:41:18.693Z,22.82
2023-05-14T12:43:20.655Z,22.87
2023-05-14T12:45:22.323Z,23.03
2023-05-14T12:47:24.220Z,23.07
2023-05-14T12:49:26.010Z,22.68
2023-05-14T12:51:27.621Z,22.38
2023-05-14T12:53:29.153Z,22.59
2023-05-14T12:55:30.778Z,23.06
2023-05-14T12:57:32.409Z,23.04
2023-05-14T12:59:33.984Z,23.10
2023-05-14T13:01:35.686Z,22.94
2023-05-14T13:03:37.360Z,23.37
2023-05-14T13:05:38.956Z,23.76
2023-05-14T13:07:40.636Z,24.02
2023-05-14T13:09:42.153Z,23.78
2023-05-14T13:11:43.651Z,23.44
2023-05-14T13:13:45.318Z,23.05
2023-05-14T13:15:46.983Z,22.97
2023-05-14T13:17:49.089Z,22.80
2023-05-14T13:19:50.620Z,22.56
2023-05-14T13:21:52.144Z,22.50
2023-05-14T13:23:53.755Z,22.46
2023-05-14T13:25:55.303Z,22.49
2023-05-14T13:27:56.839Z,22.97
2023-05-14T13:29:58.355Z,23.41
2023-05-14T13:31:59.960Z,23.73
2023-05-14T13:34:02.547Z,23.80
2023-05-14T13:36:04.655Z,23.92
2023-05-14T13:38:06.190Z,23.71
2023-05-14T13:40:08.378Z,23.70
2023-05-14T13:42:09.947Z,23.86
2023-05-14T13:44:11.578Z,23.81
2023-05-14T13:46:13.120Z,23.68
2023-05-14T13:48:14.715Z,23.47
2023-05-14T13:50:16.429Z,23.40
2023-05-14T13:52:17.953Z,23.35
2023-05-14T13:54:19.480Z,23.51
2023-05-14T13:56:21.558Z,23.56
2023-05-14T13:58:24.520Z,23.34
2023-05-14T14:00:27.144Z,23.02
2023-05-14T14:02:28.662Z,22.79
2023-05-14T14:04:30.614Z,22.35
2023-05-14T14:06:32.821Z,22.23
2023-05-14T14:08:34.337Z,22.40
2023-05-14T14:10:36.563Z,22.73
2023-05-14T14:12:38.251Z,22.94
2023-05-14T14:14:39.787Z,22.63
2023-05-14T14:16:41.365Z,22.65
2023-05-14T14:18:43.396Z,22.65
2023-05-14T14:20:45.095Z,23.03
2023-05-14T14:22:46.986Z,23.62
2023-05-14T14:24:48.502Z,23.69
2023-05-14T14:26:50.046Z,23.93
2023-05-14T14:28:51.562Z,23.70
2023-05-14T14:30:53.202Z,23.84
2023-05-14T14:32:54.937Z,24.13
2023-05-14T14:34:56.544Z,24.50
2023-05-14T14:36:58.084Z,24.69
2023-05-14T14:38:59.663Z,24.98
2023-05-14T14:41:03.219Z,25.01
2023-05-14T14:43:04.844Z,25.09
2023-05-14T14:45:07.410Z,24.21
2023-05-14T14:47:08.956Z,24.37
2023-05-14T14:49:10.531Z,23.98
2023-05-14T14:51:12.152Z,25.64
2023-05-14T14:53:20.075Z,29.55
2023-05-14T14:55:21.867Z,31.94
2023-05-14T14:57:23.532Z,34.18
2023-05-14T14:59:25.108Z,36.09
2023-05-14T15:01:26.706Z,36.17
2023-05-14T15:03:28.958Z,36.46
2023-05-14T15:05:30.765Z,36.61
2023-05-14T15:07:33.088Z,36.61
2023-05-14T15:09:34.738Z,35.33
2023-05-14T15:11:37.545Z,36.18
2023-05-14T15:13:40.940Z,32.46
2023-05-14T15:15:42.847Z,29.55
2023-05-14T15:17:44.420Z,34.42
2023-05-14T15:19:46.066Z,35.49
2023-05-14T15:21:47.636Z,36.36
2023-05-14T15:23:49.165Z,36.38
2023-05-14T15:25:50.740Z,34.90
2023-05-14T15:27:52.305Z,34.16
2023-05-14T15:29:53.835Z,33.69
2023-05-14T15:31:55.452Z,33.18
2023-05-14T15:33:57.117Z,33.31
2023-05-14T15:35:58.638Z,33.40
2023-05-14T15:38:00.168Z,32.23
2023-05-14T15:40:01.729Z,32.98
2023-05-14T15:42:03.591Z,31.82
2023-05-14T15:44:05.335Z,30.95
2023-05-14T15:46:06.895Z,28.37
2023-05-14T15:48:08.443Z,27.55
2023-05-14T15:50:10.036Z,27.20
2023-05-14T15:52:11.727Z,26.75
2023-05-14T15:54:13.309Z,26.25
2023-05-14T15:56:15.005Z,25.59
2023-05-14T15:58:16.638Z,25.55
2023-05-14T16:00:18.654Z,25.10
2023-05-14T16:02:20.220Z,24.93
2023-05-14T16:04:21.804Z,24.74
2023-05-14T16:06:23.385Z,24.31
2023-05-14T16:08:24.961Z,24.39
2023-05-14T16:10:26.759Z,24.14
2023-05-14T16:12:28.516Z,24.06
2023-05-14T16:14:30.092Z,24.40
2023-05-14T16:16:31.689Z,24.30
2023-05-14T16:18:33.842Z,24.54
2023-05-14T16:20:35.424Z,26.25
2023-05-14T16:22:36.982Z,27.07
2023-05-14T16:24:38.635Z,28.09
2023-05-14T16:26:40.422Z,27.86
2023-05-14T16:28:42.750Z,28.51
2023-05-14T16:30:44.258Z,28.71
2023-05-14T16:32:49.401Z,29.08
2023-05-14T16:34:51.282Z,28.74
2023-05-14T16:36:53.069Z,26.30
2023-05-14T16:39:06.844Z,26.29
2023-05-14T16:41:11.737Z,25.92
2023-05-14T16:43:13.249Z,25.29
2023-05-14T16:45:14.818Z,25.45
2023-05-14T16:47:16.479Z,25.45
2023-05-14T16:49:22.234Z,25.36
2023-05-14T16:51:23.857Z,25.18
2023-05-14T16:53:25.809Z,25.41
2023-05-14T16:55:27.477Z,26.84
2023-05-14T16:57:29.036Z,28.69
2023-05-14T16:59:30.678Z,29.75
2023-05-14T17:01:32.298Z,30.01
2023-05-14T17:03:33.936Z,29.57
2023-05-14T17:05:35.808Z,29.84
2023-05-14T17:07:38.587Z,30.23
2023-05-14T17:09:40.274Z,28.72
2023-05-14T17:11:41.808Z,28.45
2023-05-14T17:13:43.379Z,28.09
2023-05-14T17:15:44.956Z,27.40
2023-05-14T17:17:46.522Z,26.64
2023-05-14T17:19:48.076Z,25.88
2023-05-14T17:21:49.921Z,25.37
2023-05-14T17:23:51.477Z,24.79
2023-05-14T17:25:53.055Z,24.89
2023-05-14T17:27:54.619Z,24.48
2023-05-14T17:29:56.289Z,24.18
2023-05-14T17:31:58.183Z,23.85
2023-05-14T17:33:59.953Z,23.76
2023-05-14T17:36:03.559Z,23.40
2023-05-14T17:38:05.299Z,23.30
2023-05-14T17:40:07.397Z,22.87
2023-05-14T17:42:09.195Z,22.83
2023-05-14T17:44:12.897Z,22.52
2023-05-14T17:46:14.881Z,22.50
2023-05-14T17:48:16.544Z,22.58
2023-05-14T17:50:18.807Z,22.34
2023-05-14T17:52:20.775Z,22.16
2023-05-14T17:54:22.333Z,22.07
2023-05-14T17:56:23.919Z,21.90
2023-05-14T17:58:26.323Z,21.69
2023-05-14T18:00:27.899Z,21.17
2023-05-14T18:02:29.571Z,21.12
2023-05-14T18:04:31.284Z,21.02
2023-05-14T18:06:32.935Z,20.84
2023-05-14T18:08:34.543Z,20.68
2023-05-14T18:10:36.326Z,20.62
2023-05-14T18:12:38.120Z,20.43
2023-05-14T18:14:39.661Z,20.34
2023-05-14T18:16:41.261Z,20.18
2023-05-14T18:18:42.879Z,20.09
2023-05-14T18:20:44.424Z,19.93
2023-05-14T18:22:46.123Z,19.79
2023-05-14T18:24:47.764Z,19.71
2023-05-14T18:26:49.427Z,19.58
2023-05-14T18:28:51.895Z,19.35
2023-05-14T18:30:53.571Z,19.30
2023-05-14T18:32:55.580Z,19.12
2023-05-14T18:34:57.291Z,19.18
2023-05-14T18:36:58.932Z,19.21
2023-05-14T18:39:00.971Z,19.04
2023-05-14T18:41:03.232Z,19.02
2023-05-14T18:43:05.205Z,18.91
2023-05-14T18:45:07.529Z,18.81
2023-05-14T18:47:09.719Z,18.77
2023-05-14T18:49:11.288Z,18.54
2023-05-14T18:51:13.095Z,18.53
2023-05-14T18:53:15.420Z,18.46
2023-05-14T18:55:17.168Z,18.38
2023-05-14T18:57:18.754Z,18.37
2023-05-14T18:59:20.333Z,18.25
2023-05-14T19:01:24.401Z,18.19
2023-05-14T19:03:26.202Z,18.13
2023-05-14T19:05:32.458Z,18.07
2023-05-14T19:07:33.966Z,17.99
2023-05-14T19:09:35.513Z,17.94
2023-05-14T19:11:37.072Z,17.88
2023-05-14T19:13:39.270Z,17.80
2023-05-14T19:15:41.235Z,17.70
2023-05-14T19:17:43.102Z,17.63
2023-05-14T19:19:44.669Z,17.62
2023-05-14T19:21:46.170Z,17.61
2023-05-14T19:23:47.723Z,17.50
2023-05-14T19:25:49.291Z,17.48
2023-05-14T19:27:51.217Z,17.42
2023-05-14T19:29:52.782Z,17.38
2023-05-14T19:31:54.429Z,17.25
2023-05-14T19:33:56.063Z,17.16
2023-05-14T19:35:57.786Z,17.03
2023-05-14T19:37:59.355Z,17.01
2023-05-14T19:40:01.047Z,16.93
2023-05-14T19:42:02.640Z,16.89
2023-05-14T19:44:04.187Z,16.78
2023-05-14T19:46:06.461Z,16.68
2023-05-14T19:48:08.920Z,16.49
2023-05-14T19:50:11.248Z,16.49
2023-05-14T19:52:12.894Z,16.50
2023-05-14T19:54:14.720Z,16.51
2023-05-14T19:56:16.588Z,16.42
2023-05-14T19:58:18.192Z,16.39
2023-05-14T20:00:19.852Z,16.32
2023-05-14T20:02:21.542Z,16.32
2023-05-14T20:04:23.246Z,16.26
2023-05-14T20:06:24.853Z,16.19
2023-05-14T20:08:26.471Z,16.16
2023-05-14T20:10:28.594Z,16.13
2023-05-14T20:12:30.199Z,16.10
2023-05-14T20:14:31.815Z,16.05
2023-05-14T20:16:33.584Z,16.03
2023-05-14T20:18:35.170Z,15.99
2023-05-14T20:20:36.811Z,15.94
2023-05-14T20:22:38.652Z,15.92
2023-05-14T20:24:41.245Z,15.86
2023-05-14T20:26:42.791Z,15.83
2023-05-14T20:28:44.484Z,15.83
2023-05-14T20:30:46.117Z,15.77
2023-05-14T20:32:47.783Z,15.77
2023-05-14T20:34:49.361Z,15.73
2023-05-14T20:36:51.885Z,15.70
2023-05-14T20:38:53.478Z,15.63
2023-05-14T20:40:55.050Z,15.59
2023-05-14T20:42:56.558Z,15.51
2023-05-14T20:44:58.056Z,15.46
2023-05-14T20:46:59.709Z,15.40
2023-05-14T20:49:02.123Z,15.35
2023-05-14T20:51:06.449Z,15.30
2023-05-14T20:53:08.081Z,15.26
2023-05-14T20:55:09.958Z,15.24
2023-05-14T20:57:12.404Z,15.16
2023-05-14T20:59:13.912Z,15.11
2023-05-14T21:01:15.496Z,15.12
2023-05-14T21:03:17.308Z,15.11
2023-05-14T21:05:19.103Z,15.03
2023-05-14T21:07:20.616Z,15.00
2023-05-14T21:09:23.693Z,14.97
2023-05-14T21:11:25.650Z,14.94
2023-05-14T21:13:27.158Z,14.90
2023-05-14T21:15:30.600Z,14.86
2023-05-14T21:17:32.469Z,14.84
2023-05-14T21:19:34.040Z,14.78
2023-05-14T21:21:35.566Z,14.75
2023-05-14T21:23:37.144Z,14.74
2023-05-14T21:25:38.696Z,14.70
2023-05-14T21:27:40.341Z,14.66
2023-05-14T21:29:41.938Z,14.62
2023-05-14T21:31:43.629Z,14.58
2023-05-14T21:33:45.287Z,14.57
2023-05-14T21:35:46.931Z,14.53
2023-05-14T21:37:48.523Z,14.48
2023-05-14T21:39:50.022Z,14.47
2023-05-14T21:41:51.789Z,14.38
2023-05-14T21:43:53.355Z,14.34
2023-05-14T21:45:55.825Z,14.29
2023-05-14T21:47:57.487Z,14.28
2023-05-14T21:49:59.035Z,14.23
2023-05-14T21:52:00.546Z,14.18
2023-05-14T21:54:02.023Z,14.16
2023-05-14T21:56:03.703Z,14.13
2023-05-14T21:58:06.797Z,14.10
2023-05-14T22:00:12.907Z,14.08
2023-05-14T22:02:14.625Z,14.03
2023-05-14T22:04:16.613Z,14.00
2023-05-14T22:06:18.282Z,13.98
2023-05-14T22:08:19.892Z,13.95
2023-05-14T22:10:21.416Z,13.88
2023-05-14T22:12:22.960Z,13.86
2023-05-14T22:14:26.474Z,13.81
2023-05-14T22:16:28.090Z,13.81
2023-05-14T22:18:29.739Z,13.78
2023-05-14T22:20:31.353Z,13.75
2023-05-14T22:22:36.507Z,13.74
2023-05-14T22:24:38.025Z,13.68
2023-05-14T22:26:39.591Z,13.63
2023-05-14T22:28:42.983Z,13.54
2023-05-14T22:30:44.615Z,13.50
2023-05-14T22:32:46.316Z,13.43
2023-05-14T22:34:47.866Z,13.41
2023-05-14T22:36:49.414Z,13.38
2023-05-14T22:38:50.946Z,13.33
2023-05-14T22:40:52.513Z,13.32
2023-05-14T22:42:54.079Z,13.27
2023-05-14T22:44:55.618Z,13.18
2023-05-14T22:46:57.330Z,13.10
2023-05-14T22:49:00.058Z,13.08
2023-05-14T22:51:01.571Z,13.04
2023-05-14T22:53:03.128Z,13.01
2023-05-14T22:55:04.955Z,12.97
2023-05-14T22:57:06.755Z,12.94
2023-05-14T22:59:08.250Z,12.93
2023-05-14T23:01:09.772Z,12.88
2023-05-14T23:03:11.398Z,12.86
2023-05-14T23:05:12.994Z,12.79
2023-05-14T23:07:15.289Z,12.77
2023-05-14T23:09:16.842Z,12.73
2023-05-14T23:11:18.372Z,12.70
2023-05-14T23:13:20.056Z,12.65
2023-05-14T23:15:21.873Z,12.60
2023-05-14T23:17:23.454Z,12.56
2023-05-14T23:19:25.155Z,12.52
2023-05-14T23:21:26.872Z,12.50
2023-05-14T23:23:28.455Z,12.45
2023-05-14T23:25:30.027Z,12.42
2023-05-14T23:27:31.591Z,12.37
2023-05-14T23:29:33.143Z,12.34
2023-05-14T23:31:35.340Z,12.31
2023-05-14T23:33:37.038Z,12.27
2023-05-14T23:35:39.256Z,12.27
2023-05-14T23:37:46.940Z,12.24
2023-05-14T23:39:48.722Z,12.21
2023-05-14T23:41:50.260Z,12.17
2023-05-14T23:43:51.838Z,12.17
2023-05-14T23:45:53.508Z,12.18
2023-05-14T23:48:00.695Z,12.15
2023-05-14T23:50:02.884Z,12.10
2023-05-14T23:52:04.769Z,12.07
2023-05-14T23:54:06.298Z,12.01
2023-05-14T23:56:08.291Z,11.97
2023-05-14T23:58:09.968Z,11.94
